createdAt,value
2023-01-01T00:00:38.602Z,77.64
2023-01-01T00:05:40.600Z,78.05
2023-01-01T00:10:42.178Z,78.15
2023-01-01T00:15:43.824Z,77.83
2023-01-01T00:20:45.391Z,77.42
2023-01-01T00:25:47.081Z,76.96
2023-01-01T00:30:48.694Z,76.96
2023-01-01T00:35:50.316Z,76.64
2023-01-01T00:40:51.873Z,76.18
2023-01-01T00:45:53.439Z,75.96
2023-01-01T00:50:55.155Z,75.56
2023-01-01T00:55:56.941Z,74.89
2023-01-01T01:00:58.775Z,75.15
2023-01-01T01:06:03.514Z,74.77
2023-01-01T01:11:14.381Z,75.09
2023-01-01T01:16:18.924Z,75.37
2023-01-01T01:21:22.740Z,75.68
2023-01-01T01:26:26.851Z,76.08
2023-01-01T01:31:30.787Z,75.99
2023-01-01T01:36:32.435Z,75.87
2023-01-01T01:41:33.986Z,76.57
2023-01-01T01:46:42.997Z,76.63
2023-01-01T01:51:45.619Z,76.63
2023-01-01T01:57:08.599Z,76.94
2023-01-01T02:02:17.981Z,77.25
2023-01-01T02:07:21.003Z,77.10
2023-01-01T02:12:22.705Z,77.06
2023-01-01T02:17:38.947Z,77.68
2023-01-01T02:23:02.240Z,77.73
2023-01-01T02:28:24.019Z,78.09
2023-01-01T02:33:26.343Z,77.75
2023-01-01T02:38:50.766Z,77.46
2023-01-01T02:43:53.243Z,77.31
2023-01-01T02:48:54.844Z,76.75
2023-01-01T02:54:18.639Z,76.41
2023-01-01T02:59:47.937Z,76.42
2023-01-01T03:05:21.982Z,75.52
2023-01-01T03:10:39.028Z,75.53
2023-01-01T03:16:00.041Z,75.32
2023-01-01T03:21:05.574Z,74.78
2023-01-01T03:26:12.247Z,74.69
2023-01-01T03:31:18.921Z,73.88
2023-01-01T03:36:30.893Z,73.56
2023-01-01T03:41:38.545Z,72.82
2023-01-01T03:46:41.280Z,71.86
2023-01-01T03:51:54.949Z,71.79
2023-01-01T03:57:09.055Z,70.93
2023-01-01T04:02:13.989Z,70.38
2023-01-01T04:07:15.998Z,70.31
2023-01-01T04:12:19.008Z,69.63
2023-01-01T04:17:20.674Z,69.90
2023-01-01T04:22:23.431Z,69.54
2023-01-01T04:27:25.453Z,69.93
2023-01-01T04:32:27.065Z,69.89
2023-01-01T04:37:28.610Z,69.80
2023-01-01T04:42:30.185Z,70.03
2023-01-01T04:47:31.839Z,69.66
2023-01-01T04:52:33.737Z,69.86
2023-01-01T04:57:35.548Z,70.14
2023-01-01T05:02:37.907Z,69.51
2023-01-01T05:07:39.583Z,69.83
2023-01-01T05:12:41.195Z,69.52
2023-01-01T05:17:42.737Z,69.60
2023-01-01T05:22:46.775Z,69.35
2023-01-01T05:27:48.320Z,69.27
2023-01-01T05:32:49.901Z,69.70
2023-01-01T05:37:52.054Z,69.89
2023-01-01T05:42:53.631Z,70.05
2023-01-01T05:47:56.528Z,70.37
2023-01-01T05:52:58.119Z,70.89
2023-01-01T05:57:59.729Z,71.56
2023-01-01T06:03:01.279Z,71.86
2023-01-01T06:08:02.844Z,72.13
2023-01-01T06:13:09.522Z,72.93
2023-01-01T06:18:14.464Z,73.19
2023-01-01T06:23:16.249Z,73.20
2023-01-01T06:28:17.841Z,73.14
2023-01-01T06:33:19.504Z,73.46
2023-01-01T06:38:21.163Z,73.65
2023-01-01T06:43:22.904Z,74.13
2023-01-01T06:48:24.522Z,74.33
2023-01-01T06:53:27.232Z,74.42
2023-01-01T06:58:29.444Z,74.70
2023-01-01T07:03:32.400Z,75.23
2023-01-01T07:08:34.794Z,75.34
2023-01-01T07:13:36.378Z,75.80
2023-01-01T07:18:39.037Z,76.14
2023-01-01T07:23:40.621Z,76.11
2023-01-01T07:28:42.603Z,76.52
2023-01-01T07:33:46.461Z,76.77
2023-01-01T07:38:48.053Z,76.80
2023-01-01T07:43:49.735Z,77.21
2023-01-01T07:48:51.311Z,77.39
2023-01-01T07:53:52.915Z,77.18
2023-01-01T07:58:54.460Z,77.25
2023-01-01T08:03:55.988Z,77.50
2023-01-01T08:08:57.544Z,77.53
2023-01-01T08:13:59.145Z,77.14
2023-01-01T08:19:00.711Z,77.05
2023-01-01T08:24:02.244Z,77.27
2023-01-01T08:29:06.415Z,76.23
2023-01-01T08:34:08.259Z,76.18
2023-01-01T08:39:09.904Z,75.64
2023-01-01T08:44:12.245Z,75.30
2023-01-01T08:49:13.871Z,75.00
2023-01-01T08:54:15.420Z,75.06
2023-01-01T08:59:17.244Z,74.75
2023-01-01T09:04:18.813Z,74.47
2023-01-01T09:09:21.527Z,74.66
2023-01-01T09:14:25.918Z,74.22
2023-01-01T09:19:27.735Z,73.82
2023-01-01T09:24:29.271Z,73.19
2023-01-01T09:29:30.845Z,72.83
2023-01-01T09:34:32.480Z,72.36
2023-01-01T09:39:34.218Z,71.94
2023-01-01T09:44:44.869Z,70.65
2023-01-01T09:49:47.987Z,69.40
2023-01-01T09:55:00.903Z,68.87
2023-01-01T10:00:02.516Z,68.98
2023-01-01T10:05:19.765Z,68.83
2023-01-01T10:10:30.330Z,68.49
2023-01-01T10:15:37.739Z,68.66
2023-01-01T10:20:44.325Z,67.72
2023-01-01T10:25:46.107Z,67.12
2023-01-01T10:30:47.809Z,66.69
2023-01-01T10:35:54.024Z,66.54
2023-01-01T10:41:03.382Z,66.05
2023-01-01T10:46:06.370Z,65.78
2023-01-01T10:51:16.485Z,65.74
2023-01-01T10:56:20.258Z,64.43
2023-01-01T11:01:30.576Z,63.78
2023-01-01T11:06:41.405Z,62.90
2023-01-01T11:11:45.149Z,61.74
2023-01-01T11:16:47.744Z,61.07
2023-01-01T11:21:49.505Z,60.13
2023-01-01T11:26:55.266Z,60.73
2023-01-01T11:32:00.768Z,59.59
2023-01-01T11:37:10.531Z,59.04
2023-01-01T11:42:24.853Z,58.70
2023-01-01T11:47:33.968Z,58.67
2023-01-01T11:52:39.235Z,58.03
2023-01-01T11:57:56.809Z,58.07
2023-01-01T12:03:11.918Z,58.67
2023-01-01T12:08:21.419Z,59.00
2023-01-01T12:13:33.222Z,58.62
2023-01-01T12:18:44.990Z,59.10
2023-01-01T12:23:46.696Z,59.19
2023-01-01T12:29:12.594Z,59.18
2023-01-01T12:34:51.631Z,59.56
2023-01-01T12:40:24.846Z,59.51
2023-01-01T12:45:30.869Z,58.67
2023-01-01T12:50:49.650Z,59.10
2023-01-01T12:56:22.740Z,58.89
2023-01-01T13:01:33.468Z,58.52
2023-01-01T13:06:41.361Z,58.61
2023-01-01T13:11:45.689Z,57.74
2023-01-01T13:16:56.470Z,58.08
2023-01-01T13:21:58.581Z,58.09
2023-01-01T13:27:00.144Z,57.94
2023-01-01T13:32:05.169Z,57.27
2023-01-01T13:37:17.230Z,57.29
2023-01-01T13:42:52.506Z,56.82
2023-01-01T13:48:28.031Z,56.84
2023-01-01T13:54:08.174Z,57.21
2023-01-01T13:59:34.663Z,57.55
2023-01-01T14:04:49.372Z,57.11
2023-01-01T14:09:50.915Z,57.06
2023-01-01T14:14:52.646Z,57.67
2023-01-01T14:19:54.274Z,57.29
2023-01-01T14:24:56.823Z,57.75
2023-01-01T14:29:58.489Z,58.22
2023-01-01T14:35:01.800Z,58.73
2023-01-01T14:40:26.686Z,59.37
2023-01-01T14:45:29.784Z,59.81
2023-01-01T14:50:34.209Z,59.99
2023-01-01T14:55:47.252Z,60.84
2023-01-01T15:00:49.122Z,61.91
2023-01-01T15:06:02.452Z,64.20
2023-01-01T15:11:04.934Z,65.18
2023-01-01T15:16:17.323Z,67.03
2023-01-01T15:21:31.099Z,66.95
2023-01-01T15:26:44.010Z,67.28
2023-01-01T15:31:53.838Z,68.09
2023-01-01T15:36:56.812Z,68.71
2023-01-01T15:41:58.608Z,69.17
2023-01-01T15:47:06.240Z,70.61
2023-01-01T15:52:20.707Z,71.75
2023-01-01T15:57:23.990Z,73.25
2023-01-01T16:02:33.850Z,74.57
2023-01-01T16:07:35.551Z,76.21
2023-01-01T16:12:37.101Z,76.63
2023-01-01T16:17:39.414Z,77.33
2023-01-01T16:22:40.975Z,77.30
2023-01-01T16:27:43.009Z,76.48
2023-01-01T16:32:45.048Z,78.04
2023-01-01T16:37:46.727Z,78.03
2023-01-01T16:42:48.292Z,78.94
2023-01-01T16:47:49.884Z,78.42
2023-01-01T16:52:51.478Z,79.54
2023-01-01T16:58:07.411Z,79.52
2023-01-01T17:03:15.249Z,80.58
2023-01-01T17:08:17.425Z,82.19
2023-01-01T17:13:19.038Z,82.70
2023-01-01T17:18:23.962Z,83.93
2023-01-01T17:23:39.800Z,84.12
2023-01-01T17:28:44.027Z,84.53
2023-01-01T17:33:46.318Z,85.52
2023-01-01T17:38:47.933Z,85.52
2023-01-01T17:43:51.195Z,87.14
2023-01-01T17:48:52.868Z,86.85
2023-01-01T17:53:55.700Z,87.68
2023-01-01T17:58:58.205Z,87.98
2023-01-01T18:04:01.134Z,88.48
2023-01-01T18:09:05.611Z,89.40
2023-01-01T18:14:07.537Z,89.44
2023-01-01T18:19:09.243Z,90.34
2023-01-01T18:24:13.408Z,90.03
2023-01-01T18:29:15.042Z,90.80
2023-01-01T18:34:18.509Z,91.60
2023-01-01T18:39:23.344Z,91.06
2023-01-01T18:44:28.493Z,91.57
2023-01-01T18:49:31.104Z,92.92
2023-01-01T18:54:33.946Z,92.39
2023-01-01T18:59:39.197Z,93.04
2023-01-01T19:04:40.793Z,93.11
2023-01-01T19:09:42.367Z,94.41
2023-01-01T19:14:44.016Z,93.55
2023-01-01T19:19:45.710Z,93.59
2023-01-01T19:24:47.339Z,94.66
2023-01-01T19:29:50.213Z,94.35
2023-01-01T19:34:51.781Z,95.50
2023-01-01T19:39:54.283Z,96.12
2023-01-01T19:44:55.921Z,96.13
2023-01-01T19:49:57.536Z,95.77
2023-01-01T19:54:59.147Z,96.25
2023-01-01T20:00:00.866Z,96.71
2023-01-01T20:05:02.737Z,96.31
2023-01-01T20:10:04.683Z,97.16
2023-01-01T20:15:06.956Z,97.52
2023-01-01T20:20:10.319Z,97.26
2023-01-01T20:25:12.417Z,98.24
2023-01-01T20:30:13.984Z,98.30
2023-01-01T20:35:15.578Z,98.63
2023-01-01T20:40:17.220Z,99.57
2023-01-01T20:45:18.809Z,100.00
2023-01-01T20:50:20.414Z,99.26
2023-01-01T20:55:22.014Z,99.52
2023-01-01T21:00:23.546Z,99.78
2023-01-01T21:05:25.154Z,100.00
2023-01-01T21:10:26.759Z,100.00
2023-01-01T21:15:28.519Z,100.00
2023-01-01T21:20:36.468Z,100.00
2023-01-01T21:25:51.033Z,100.00
2023-01-01T21:30:57.036Z,100.00
2023-01-01T21:36:04.901Z,100.00
2023-01-01T21:41:33.415Z,100.00
2023-01-01T21:46:36.295Z,100.00
2023-01-01T21:51:42.408Z,100.00
2023-01-01T21:56:53.271Z,100.00
2023-01-01T22:02:08.340Z,100.00
2023-01-01T22:12:39.446Z,100.00
2023-01-01T22:17:41.188Z,100.00
2023-01-01T22:22:43.378Z,100.00
2023-01-01T22:27:44.966Z,100.00
2023-01-01T22:32:54.140Z,100.00
2023-01-01T22:37:57.859Z,100.00
2023-01-01T22:43:02.296Z,100.00
2023-01-01T22:48:06.988Z,100.00
2023-01-01T22:53:08.594Z,100.00
2023-01-01T22:58:10.211Z,100.00
2023-01-01T23:03:11.988Z,100.00
2023-01-01T23:08:13.678Z,100.00
2023-01-01T23:13:34.020Z,100.00
2023-01-01T23:18:37.037Z,100.00
2023-01-01T23:23:39.268Z,100.00
2023-01-01T23:28:40.946Z,100.00
2023-01-01T23:33:42.650Z,100.00
2023-01-01T23:38:44.334Z,100.00
2023-01-01T23:43:45.933Z,100.00
2023-01-01T23:48:48.595Z,100.00
2023-01-01T23:53:50.136Z,100.00
2023-01-01T23:58:51.689Z,100.00
